createdAt,value
2022-09-22T00:00:59.679Z,98779.47
2022-09-22T00:03:38.290Z,98775.03
2022-09-22T00:06:08.355Z,98779.72
2022-09-22T00:08:38.202Z,98784.16
2022-09-22T00:11:09.071Z,98783.94
2022-09-22T00:13:37.728Z,98790.22
2022-09-22T00:16:09.065Z,98789.22
2022-09-22T00:18:38.869Z,98788.03
2022-09-22T00:21:09.404Z,98782.06
2022-09-22T00:23:38.610Z,98780.22
2022-09-22T00:26:08.251Z,98785.16
2022-09-22T00:28:36.653Z,98781.84
2022-09-22T00:31:10.618Z,98785.16
2022-09-22T00:33:40.891Z,98783.13
2022-09-22T00:36:10.077Z,98783.16
2022-09-22T00:38:39.173Z,98783.34
2022-09-22T00:41:11.092Z,98784.84
2022-09-22T00:43:40.382Z,98787.25
2022-09-22T00:46:15.349Z,98779.41
2022-09-22T00:48:49.728Z,98775.09
2022-09-22T00:51:21.955Z,98781.00
2022-09-22T00:53:50.738Z,98774.22
2022-09-22T00:56:23.325Z,98773.03
2022-09-22T00:58:55.662Z,98771.97
2022-09-22T01:01:24.103Z,98766.25
2022-09-22T01:03:54.602Z,98777.44
2022-09-22T01:06:26.816Z,98779.06
2022-09-22T01:08:56.207Z,98776.47
2022-09-22T01:11:25.304Z,98777.09
2022-09-22T01:13:59.469Z,98776.59
2022-09-22T01:16:41.263Z,98777.47
2022-09-22T01:19:21.447Z,98774.31
2022-09-22T01:21:52.154Z,98773.72
2022-09-22T01:24:48.353Z,98775.16
2022-09-22T01:27:57.516Z,98776.00
2022-09-22T01:30:32.885Z,98780.19
2022-09-22T01:33:11.985Z,98784.56
2022-09-22T01:35:48.222Z,98772.06
2022-09-22T01:38:24.978Z,98772.44
2022-09-22T01:40:57.361Z,98777.72
2022-09-22T01:43:35.344Z,98772.50
2022-09-22T01:46:08.383Z,98773.31
2022-09-22T01:48:38.068Z,98774.38
2022-09-22T01:51:10.703Z,98771.16
2022-09-22T01:53:44.340Z,98764.31
2022-09-22T01:56:14.917Z,98764.44
2022-09-22T01:58:47.927Z,98762.97
2022-09-22T02:01:25.718Z,98759.09
2022-09-22T02:03:59.974Z,98762.47
2022-09-22T02:06:31.843Z,98761.16
2022-09-22T02:09:03.060Z,98759.22
2022-09-22T02:11:31.959Z,98761.22
2022-09-22T02:14:00.611Z,98757.69
2022-09-22T02:16:31.089Z,98753.09
2022-09-22T02:19:12.592Z,98757.06
2022-09-22T02:21:45.142Z,98755.28
2022-09-22T02:24:47.355Z,98763.13
2022-09-22T02:27:23.849Z,98768.56
2022-09-22T02:29:54.959Z,98767.19
2022-09-22T02:32:25.076Z,98756.34
2022-09-22T02:34:55.460Z,98763.94
2022-09-22T02:37:27.509Z,98773.03
2022-09-22T02:40:04.847Z,98762.53
2022-09-22T02:42:36.316Z,98769.53
2022-09-22T02:45:10.130Z,98767.91
2022-09-22T02:47:42.431Z,98762.31
2022-09-22T02:50:12.656Z,98764.03
2022-09-22T02:52:41.953Z,98763.63
2022-09-22T02:55:11.508Z,98761.47
2022-09-22T02:57:39.862Z,98763.06
2022-09-22T03:00:08.994Z,98761.69
2022-09-22T03:02:37.418Z,98770.00
2022-09-22T03:05:08.222Z,98770.16
2022-09-22T03:07:36.370Z,98769.59
2022-09-22T03:10:04.958Z,98763.78
2022-09-22T03:12:33.330Z,98772.88
2022-09-22T03:15:01.488Z,98765.50
2022-09-22T03:17:32.235Z,98768.25
2022-09-22T03:20:00.559Z,98763.56
2022-09-22T03:22:30.705Z,98763.56
2022-09-22T03:24:58.920Z,98764.63
2022-09-22T03:27:27.845Z,98769.53
2022-09-22T03:29:56.355Z,98763.66
2022-09-22T03:32:24.550Z,98767.75
2022-09-22T03:34:52.891Z,98777.44
2022-09-22T03:37:21.130Z,98772.97
2022-09-22T03:39:50.531Z,98767.75
2022-09-22T03:42:18.888Z,98777.22
2022-09-22T03:44:47.201Z,98782.34
2022-09-22T03:47:15.336Z,98771.75
2022-09-22T03:49:43.751Z,98778.69
2022-09-22T03:52:12.178Z,98774.28
2022-09-22T03:54:40.344Z,98785.31
2022-09-22T03:57:10.129Z,98765.78
2022-09-22T03:59:38.342Z,98771.53
2022-09-22T04:02:06.872Z,98774.81
2022-09-22T04:04:35.238Z,98771.47
2022-09-22T04:07:07.344Z,98770.03
2022-09-22T04:09:36.054Z,98770.59
2022-09-22T04:12:04.470Z,98775.72
2022-09-22T04:14:33.944Z,98768.31
2022-09-22T04:17:02.231Z,98775.41
2022-09-22T04:19:35.257Z,98769.50
2022-09-22T04:22:03.722Z,98773.16
2022-09-22T04:24:33.201Z,98770.50
2022-09-22T04:27:18.970Z,98772.66
2022-09-22T04:29:50.011Z,98772.72
2022-09-22T04:32:18.256Z,98777.34
2022-09-22T04:34:47.941Z,98775.16
2022-09-22T04:37:16.623Z,98777.41
2022-09-22T04:39:44.668Z,98776.16
2022-09-22T04:42:12.884Z,98783.06
2022-09-22T04:44:41.463Z,98777.41
2022-09-22T04:47:10.998Z,98781.31
2022-09-22T04:49:39.222Z,98784.78
2022-09-22T04:52:07.839Z,98781.50
2022-09-22T04:54:36.038Z,98780.38
2022-09-22T04:57:04.141Z,98775.69
2022-09-22T04:59:32.730Z,98780.09
2022-09-22T05:02:00.940Z,98788.91
2022-09-22T05:04:30.466Z,98786.56
2022-09-22T05:06:58.722Z,98787.69
2022-09-22T05:09:26.924Z,98781.16
2022-09-22T05:11:58.860Z,98790.03
2022-09-22T05:14:27.361Z,98781.22
2022-09-22T05:16:55.694Z,98787.53
2022-09-22T05:19:24.024Z,98788.72
2022-09-22T05:21:54.420Z,98791.44
2022-09-22T05:24:22.894Z,98792.19
2022-09-22T05:26:51.042Z,98794.53
2022-09-22T05:29:19.331Z,98789.13
2022-09-22T05:31:47.624Z,98788.91
2022-09-22T05:34:15.908Z,98789.03
2022-09-22T05:36:44.258Z,98789.53
2022-09-22T05:39:13.933Z,98791.31
2022-09-22T05:41:42.258Z,98793.88
2022-09-22T05:44:10.741Z,98797.84
2022-09-22T05:46:39.040Z,98798.47
2022-09-22T05:49:07.319Z,98800.94
2022-09-22T05:51:35.770Z,98802.34
2022-09-22T05:54:03.905Z,98801.16
2022-09-22T05:56:33.746Z,98803.00
2022-09-22T05:59:02.124Z,98804.75
2022-09-22T06:01:31.187Z,98801.66
2022-09-22T06:03:59.899Z,98802.03
2022-09-22T06:06:28.202Z,98813.41
2022-09-22T06:08:56.791Z,98818.44
2022-09-22T06:11:25.106Z,98808.31
2022-09-22T06:13:55.142Z,98819.38
2022-09-22T06:16:23.280Z,98829.13
2022-09-22T06:18:51.664Z,98822.91
2022-09-22T06:21:21.027Z,98819.28
2022-09-22T06:23:49.139Z,98815.47
2022-09-22T06:26:17.306Z,98817.13
2022-09-22T06:28:45.387Z,98818.53
2022-09-22T06:31:16.125Z,98818.03
2022-09-22T06:33:48.764Z,98816.19
2022-09-22T06:36:24.128Z,98816.38
2022-09-22T06:38:54.285Z,98822.59
2022-09-22T06:41:22.708Z,98821.34
2022-09-22T06:43:52.779Z,98828.56
2022-09-22T06:46:23.545Z,98830.97
2022-09-22T06:48:51.958Z,98830.16
2022-09-22T06:51:20.137Z,98832.34
2022-09-22T06:53:51.868Z,98827.94
2022-09-22T06:56:20.735Z,98827.91
2022-09-22T06:59:08.814Z,98823.69
2022-09-22T07:01:39.224Z,98828.69
2022-09-22T07:04:07.811Z,98825.47
2022-09-22T07:06:37.387Z,98828.59
2022-09-22T07:09:07.030Z,98831.94
2022-09-22T07:11:39.825Z,98829.19
2022-09-22T07:14:09.240Z,98828.31
2022-09-22T07:16:40.912Z,98827.00
2022-09-22T07:19:09.508Z,98836.47
2022-09-22T07:21:37.895Z,98832.13
2022-09-22T07:24:08.330Z,98836.44
2022-09-22T07:26:39.204Z,98839.38
2022-09-22T07:29:11.678Z,98836.91
2022-09-22T07:31:43.554Z,98833.47
2022-09-22T07:34:12.845Z,98841.22
2022-09-22T07:36:41.743Z,98838.44
2022-09-22T07:39:12.621Z,98843.09
2022-09-22T07:41:43.382Z,98835.84
2022-09-22T07:44:29.557Z,98830.47
2022-09-22T07:46:59.146Z,98827.16
2022-09-22T07:49:27.891Z,98826.72
2022-09-22T07:51:57.376Z,98822.34
2022-09-22T07:54:26.801Z,98823.13
2022-09-22T07:56:58.730Z,98823.72
2022-09-22T07:59:27.978Z,98821.75
2022-09-22T08:01:56.194Z,98810.25
2022-09-22T08:04:26.718Z,98814.06
2022-09-22T08:06:56.464Z,98812.59
2022-09-22T08:09:25.400Z,98823.03
2022-09-22T08:11:53.726Z,98824.16
2022-09-22T08:14:23.958Z,98826.97
2022-09-22T08:16:53.639Z,98828.13
2022-09-22T08:19:25.386Z,98833.66
2022-09-22T08:21:54.356Z,98832.69
2022-09-22T08:24:23.650Z,98833.34
2022-09-22T08:26:55.852Z,98839.84
2022-09-22T08:29:24.813Z,98841.00
2022-09-22T08:31:54.247Z,98835.56
2022-09-22T08:34:23.040Z,98844.13
2022-09-22T08:36:52.456Z,98848.19
2022-09-22T08:39:20.791Z,98842.44
2022-09-22T08:42:05.916Z,98841.34
2022-09-22T08:44:38.277Z,98846.88
2022-09-22T08:47:06.883Z,98843.53
2022-09-22T08:49:56.150Z,98831.53
2022-09-22T08:52:29.594Z,98835.34
2022-09-22T08:54:59.696Z,98831.56
2022-09-22T08:57:56.546Z,98837.94
2022-09-22T09:00:25.788Z,98833.38
2022-09-22T09:03:03.068Z,98843.59
2022-09-22T09:06:04.530Z,98837.75
2022-09-22T09:09:11.124Z,98828.97
2022-09-22T09:12:01.273Z,98818.81
2022-09-22T09:14:44.595Z,98819.91
2022-09-22T09:17:15.864Z,98819.50
2022-09-22T09:19:45.323Z,98831.34
2022-09-22T09:22:19.183Z,98819.09
2022-09-22T09:27:41.673Z,98815.19
2022-09-22T09:30:14.498Z,98817.91
2022-09-22T09:32:48.289Z,98817.22
2022-09-22T09:35:18.275Z,98816.91
2022-09-22T09:37:48.133Z,98811.47
2022-09-22T09:40:20.185Z,98812.13
2022-09-22T09:42:57.740Z,98811.00
2022-09-22T09:45:32.031Z,98804.22
2022-09-22T09:48:09.923Z,98812.91
2022-09-22T09:50:37.965Z,98801.38
2022-09-22T09:53:08.559Z,98813.09
2022-09-22T09:55:38.423Z,98802.63
2022-09-22T09:58:09.337Z,98808.13
2022-09-22T10:00:53.145Z,98811.28
2022-09-22T10:03:26.333Z,98816.75
2022-09-22T10:06:00.826Z,98820.88
2022-09-22T10:08:32.298Z,98823.59
2022-09-22T10:11:02.271Z,98824.28
2022-09-22T10:13:33.554Z,98825.22
2022-09-22T10:16:08.923Z,98822.06
2022-09-22T10:18:40.607Z,98826.50
2022-09-22T10:21:16.361Z,98821.69
2022-09-22T10:23:46.889Z,98815.56
2022-09-22T10:26:22.918Z,98819.81
2022-09-22T10:29:16.327Z,98811.50
2022-09-22T10:32:02.687Z,98816.75
2022-09-22T10:34:33.917Z,98809.16
2022-09-22T10:37:03.558Z,98813.16
2022-09-22T10:39:38.060Z,98805.13
2022-09-22T10:42:17.308Z,98807.13
2022-09-22T10:44:48.888Z,98812.63
2022-09-22T10:47:31.570Z,98801.47
2022-09-22T10:50:36.813Z,98805.25
2022-09-22T10:53:17.642Z,98798.69
2022-09-22T10:55:53.824Z,98791.38
2022-09-22T10:58:45.593Z,98801.16
2022-09-22T11:01:34.469Z,98800.63
2022-09-22T11:04:18.220Z,98798.06
2022-09-22T11:07:36.304Z,98801.50
2022-09-22T11:10:33.626Z,98793.53
2022-09-22T11:13:07.889Z,98806.28
2022-09-22T11:15:47.567Z,98797.66
2022-09-22T11:18:34.456Z,98800.53
2022-09-22T11:21:18.695Z,98801.28
2022-09-22T11:24:01.720Z,98793.59
2022-09-22T11:26:42.032Z,98784.69
2022-09-22T11:29:32.194Z,98781.72
2022-09-22T11:32:10.242Z,98781.69
2022-09-22T11:35:00.062Z,98775.38
2022-09-22T11:37:42.166Z,98774.22
2022-09-22T11:40:29.543Z,98769.28
2022-09-22T11:43:05.751Z,98773.66
2022-09-22T11:45:45.526Z,98777.19
2022-09-22T11:48:29.557Z,98772.44
2022-09-22T11:51:19.963Z,98768.38
2022-09-22T11:54:12.682Z,98768.84
2022-09-22T11:56:42.964Z,98765.16
2022-09-22T11:59:21.967Z,98772.44
2022-09-22T12:01:50.779Z,98783.63
2022-09-22T12:04:27.731Z,98797.00
2022-09-22T12:06:57.212Z,98783.41
2022-09-22T12:09:40.153Z,98774.69
2022-09-22T12:12:12.109Z,98779.03
2022-09-22T12:14:42.017Z,98785.13
2022-09-22T12:17:14.076Z,98780.13
2022-09-22T12:19:54.650Z,98776.28
2022-09-22T12:22:27.838Z,98773.47
2022-09-22T12:24:56.484Z,98768.53
2022-09-22T12:27:26.851Z,98771.56
2022-09-22T12:30:18.984Z,98766.19
2022-09-22T12:32:50.707Z,98760.66
2022-09-22T12:35:31.397Z,98763.66
2022-09-22T12:38:02.227Z,98754.91
2022-09-22T12:40:32.212Z,98760.19
2022-09-22T12:43:01.146Z,98760.72
2022-09-22T12:45:33.815Z,98749.81
2022-09-22T12:48:10.890Z,98744.38
2022-09-22T12:50:42.421Z,98744.63
2022-09-22T12:53:13.818Z,98738.25
2022-09-22T12:55:42.219Z,98741.25
2022-09-22T12:58:41.671Z,98742.00
2022-09-22T13:01:35.409Z,98740.44
2022-09-22T13:05:00.153Z,98740.44
2022-09-22T13:08:04.887Z,98735.19
2022-09-22T13:10:44.051Z,98744.78
2022-09-22T13:13:20.459Z,98739.16
2022-09-22T13:16:02.680Z,98749.41
2022-09-22T13:18:45.561Z,98748.94
2022-09-22T13:21:21.559Z,98736.59
2022-09-22T13:23:58.743Z,98730.97
2022-09-22T13:26:30.377Z,98730.19
2022-09-22T13:29:04.862Z,98733.09
2022-09-22T13:31:41.331Z,98730.97
2022-09-22T13:34:25.420Z,98739.59
2022-09-22T13:36:56.374Z,98725.19
2022-09-22T13:39:26.729Z,98729.16
2022-09-22T13:41:59.857Z,98731.66
2022-09-22T13:44:30.554Z,98736.72
2022-09-22T13:47:00.844Z,98730.19
2022-09-22T13:49:32.611Z,98728.56
2022-09-22T13:52:05.418Z,98725.56
2022-09-22T13:54:36.046Z,98723.53
2022-09-22T13:57:07.886Z,98720.41
2022-09-22T13:59:40.781Z,98716.28
2022-09-22T14:02:11.378Z,98722.16
2022-09-22T14:04:50.985Z,98719.56
2022-09-22T14:07:21.543Z,98713.25
2022-09-22T14:09:50.645Z,98722.88
2022-09-22T14:12:20.848Z,98721.72
2022-09-22T14:14:49.363Z,98723.81
2022-09-22T14:17:19.733Z,98718.59
2022-09-22T14:19:54.281Z,98705.56
2022-09-22T14:22:24.768Z,98710.91
2022-09-22T14:24:56.644Z,98705.63
2022-09-22T14:27:31.311Z,98695.91
2022-09-22T14:29:59.568Z,98705.22
2022-09-22T14:32:35.229Z,98705.38
2022-09-22T14:35:06.125Z,98695.94
2022-09-22T14:37:35.951Z,98700.34
2022-09-22T14:40:06.995Z,98701.47
2022-09-22T14:42:37.474Z,98708.28
2022-09-22T14:45:27.695Z,98700.59
2022-09-22T14:48:18.291Z,98708.25
2022-09-22T14:50:48.666Z,98706.97
2022-09-22T14:53:21.849Z,98709.00
2022-09-22T14:55:52.760Z,98708.28
2022-09-22T14:58:25.729Z,98703.44
2022-09-22T15:01:13.712Z,98701.22
2022-09-22T15:03:42.884Z,98710.75
2022-09-22T15:06:12.962Z,98701.84
2022-09-22T15:08:42.513Z,98709.31
2022-09-22T15:11:11.643Z,98698.25
2022-09-22T15:13:42.651Z,98700.34
2022-09-22T15:16:25.758Z,98707.22
2022-09-22T15:18:54.115Z,98703.09
2022-09-22T15:21:29.195Z,98696.75
2022-09-22T15:23:58.330Z,98697.34
2022-09-22T15:26:28.190Z,98713.66
2022-09-22T15:28:59.183Z,98697.59
2022-09-22T15:31:30.028Z,98703.34
2022-09-22T15:34:02.273Z,98692.19
2022-09-22T15:36:33.050Z,98695.19
2022-09-22T15:39:07.554Z,98696.69
2022-09-22T15:41:37.728Z,98699.06
2022-09-22T15:44:07.595Z,98707.09
2022-09-22T15:46:37.041Z,98701.91
2022-09-22T15:49:08.901Z,98703.38
2022-09-22T15:51:37.479Z,98703.44
2022-09-22T15:54:07.874Z,98699.75
2022-09-22T15:56:36.345Z,98711.47
2022-09-22T15:59:05.680Z,98710.91
2022-09-22T16:01:36.334Z,98712.38
2022-09-22T16:04:05.042Z,98708.25
2022-09-22T16:06:33.722Z,98715.44
2022-09-22T16:09:02.311Z,98711.25
2022-09-22T16:11:31.593Z,98715.78
2022-09-22T16:14:03.760Z,98719.06
2022-09-22T16:16:33.086Z,98718.84
2022-09-22T16:19:03.216Z,98723.13
2022-09-22T16:21:33.595Z,98713.81
2022-09-22T16:24:05.229Z,98719.03
2022-09-22T16:26:33.649Z,98715.59
2022-09-22T16:29:02.090Z,98714.78
2022-09-22T16:31:30.799Z,98727.00
2022-09-22T16:34:01.481Z,98719.34
2022-09-22T16:36:33.110Z,98722.16
2022-09-22T16:39:02.358Z,98724.69
2022-09-22T16:41:32.282Z,98726.66
2022-09-22T16:44:01.301Z,98727.16
2022-09-22T16:46:31.631Z,98723.72
2022-09-22T16:49:04.238Z,98723.41
2022-09-22T16:51:35.634Z,98725.53
2022-09-22T16:54:04.474Z,98721.56
2022-09-22T16:56:34.402Z,98725.16
2022-09-22T16:59:03.421Z,98724.22
2022-09-22T17:01:33.146Z,98716.94
2022-09-22T17:04:01.384Z,98723.59
2022-09-22T17:06:29.895Z,98723.94
2022-09-22T17:09:01.049Z,98718.06
2022-09-22T17:11:34.584Z,98721.16
2022-09-22T17:14:10.046Z,98719.41
2022-09-22T17:16:40.932Z,98731.34
2022-09-22T17:19:11.357Z,98732.63
2022-09-22T17:21:41.162Z,98737.56
2022-09-22T17:24:10.923Z,98743.09
2022-09-22T17:26:41.914Z,98746.13
2022-09-22T17:29:11.283Z,98736.03
2022-09-22T17:31:41.404Z,98734.41
2022-09-22T17:34:10.684Z,98736.22
2022-09-22T17:36:39.036Z,98739.38
2022-09-22T17:39:10.627Z,98747.59
2022-09-22T17:41:47.060Z,98745.34
2022-09-22T17:44:21.244Z,98742.97
2022-09-22T17:47:08.121Z,98743.97
2022-09-22T17:49:53.819Z,98742.69
2022-09-22T17:52:39.993Z,98753.63
2022-09-22T17:55:12.127Z,98744.09
2022-09-22T17:57:43.031Z,98750.88
2022-09-22T18:00:13.283Z,98747.50
2022-09-22T18:02:42.004Z,98743.31
2022-09-22T18:05:14.102Z,98747.34
2022-09-22T18:07:43.205Z,98755.88
2022-09-22T18:10:13.339Z,98766.72
2022-09-22T18:12:43.509Z,98764.00
2022-09-22T18:15:13.975Z,98761.59
2022-09-22T18:17:43.726Z,98754.75
2022-09-22T18:20:16.404Z,98757.94
2022-09-22T18:22:48.287Z,98767.47
2022-09-22T18:25:19.849Z,98764.63
2022-09-22T18:27:49.614Z,98773.50
2022-09-22T18:30:19.710Z,98776.22
2022-09-22T18:32:48.482Z,98765.19
2022-09-22T18:35:17.517Z,98764.25
2022-09-22T18:37:46.338Z,98769.06
2022-09-22T18:40:16.158Z,98780.38
2022-09-22T18:42:44.887Z,98774.47
2022-09-22T18:45:14.702Z,98779.41
2022-09-22T18:47:43.803Z,98778.44
2022-09-22T18:50:13.059Z,98776.13
2022-09-22T18:52:43.359Z,98777.22
2022-09-22T18:55:18.603Z,98773.47
2022-09-22T18:57:48.428Z,98775.59
2022-09-22T19:00:22.266Z,98772.13
2022-09-22T19:02:51.028Z,98773.13
2022-09-22T19:05:19.817Z,98772.63
2022-09-22T19:07:48.472Z,98777.94
2022-09-22T19:10:21.928Z,98764.25
2022-09-22T19:12:50.422Z,98767.00
2022-09-22T19:15:20.416Z,98768.25
2022-09-22T19:17:50.864Z,98771.75
2022-09-22T19:20:22.584Z,98767.84
2022-09-22T19:22:52.588Z,98764.06
2022-09-22T19:25:22.578Z,98757.22
2022-09-22T19:27:55.647Z,98764.53
2022-09-22T19:30:29.682Z,98768.56
2022-09-22T19:32:59.734Z,98773.09
2022-09-22T19:35:29.729Z,98767.22
2022-09-22T19:37:58.261Z,98772.38
2022-09-22T19:40:26.696Z,98779.00
2022-09-22T19:42:55.693Z,98774.97
2022-09-22T19:45:26.596Z,98769.16
2022-09-22T19:47:57.006Z,98775.53
2022-09-22T19:50:25.427Z,98772.44
2022-09-22T19:52:53.592Z,98769.75
2022-09-22T19:55:22.182Z,98772.38
2022-09-22T19:57:53.156Z,98774.09
2022-09-22T20:00:26.310Z,98779.22
2022-09-22T20:02:59.262Z,98779.13
2022-09-22T20:05:28.898Z,98779.50
2022-09-22T20:07:57.226Z,98774.44
2022-09-22T20:10:25.526Z,98775.56
2022-09-22T20:12:53.881Z,98768.50
2022-09-22T20:15:21.223Z,98773.50
2022-09-22T20:17:49.417Z,98767.75
2022-09-22T20:20:21.126Z,98778.19
2022-09-22T20:22:53.117Z,98767.91
2022-09-22T20:25:23.930Z,98771.03
2022-09-22T20:27:52.445Z,98755.59
2022-09-22T20:30:20.668Z,98762.50
2022-09-22T20:32:50.419Z,98763.31
2022-09-22T20:35:22.081Z,98771.59
2022-09-22T20:37:51.673Z,98765.56
2022-09-22T20:40:21.724Z,98770.78
2022-09-22T20:42:50.891Z,98770.56
2022-09-22T20:45:21.037Z,98768.72
2022-09-22T20:47:49.335Z,98766.97
2022-09-22T20:50:17.709Z,98772.63
2022-09-22T20:52:48.044Z,98764.63
2022-09-22T20:55:17.249Z,98774.09
2022-09-22T20:57:45.435Z,98773.66
2022-09-22T21:00:15.467Z,98766.13
2022-09-22T21:02:44.268Z,98771.09
2022-09-22T21:05:12.607Z,98768.84
2022-09-22T21:07:40.775Z,98765.28
2022-09-22T21:10:28.273Z,98761.78
2022-09-22T21:12:56.594Z,98769.66
2022-09-22T21:15:25.154Z,98766.53
2022-09-22T21:17:53.695Z,98771.91
2022-09-22T21:20:21.889Z,98760.16
2022-09-22T21:22:50.730Z,98756.28
2022-09-22T21:25:20.518Z,98750.03
2022-09-22T21:27:48.619Z,98763.56
2022-09-22T21:30:17.198Z,98762.88
2022-09-22T21:32:45.413Z,98753.06
2022-09-22T21:35:16.830Z,98758.56
2022-09-22T21:37:45.869Z,98754.41
2022-09-22T21:40:14.376Z,98758.38
2022-09-22T21:42:45.209Z,98755.16
2022-09-22T21:45:13.762Z,98760.53
2022-09-22T21:47:42.051Z,98754.78
2022-09-22T21:50:11.093Z,98748.56
2022-09-22T21:52:39.611Z,98750.25
2022-09-22T21:55:08.537Z,98749.69
2022-09-22T21:57:37.209Z,98750.25
2022-09-22T22:00:08.947Z,98746.53
2022-09-22T22:02:57.833Z,98748.72
2022-09-22T22:05:27.387Z,98763.91
2022-09-22T22:07:55.502Z,98752.59
2022-09-22T22:10:24.283Z,98746.97
2022-09-22T22:12:52.695Z,98753.00
2022-09-22T22:15:23.554Z,98756.75
2022-09-22T22:17:51.654Z,98752.78
2022-09-22T22:20:20.040Z,98746.25
2022-09-22T22:22:48.149Z,98737.78
2022-09-22T22:25:17.462Z,98742.19
2022-09-22T22:27:46.265Z,98742.25
2022-09-22T22:30:14.684Z,98740.44
2022-09-22T22:32:44.280Z,98746.59
2022-09-22T22:35:12.849Z,98736.25
2022-09-22T22:37:41.003Z,98734.00
2022-09-22T22:40:10.058Z,98727.78
2022-09-22T22:42:38.556Z,98726.13
2022-09-22T22:45:07.407Z,98728.41
2022-09-22T22:47:35.516Z,98730.59
2022-09-22T22:50:06.523Z,98733.00
2022-09-22T22:52:37.671Z,98729.59
2022-09-22T22:55:06.841Z,98728.28
2022-09-22T22:57:35.023Z,98719.53
2022-09-22T23:00:03.506Z,98722.28
2022-09-22T23:02:31.958Z,98721.25
2022-09-22T23:05:01.395Z,98720.13
2022-09-22T23:07:31.006Z,98714.53
2022-09-22T23:10:07.227Z,98718.41
2022-09-22T23:12:35.643Z,98720.03
2022-09-22T23:15:04.566Z,98724.22
2022-09-22T23:17:32.756Z,98714.63
2022-09-22T23:20:00.794Z,98718.50
2022-09-22T23:22:30.804Z,98713.66
2022-09-22T23:24:59.038Z,98710.13
2022-09-22T23:27:28.494Z,98712.69
2022-09-22T23:29:57.454Z,98705.75
2022-09-22T23:32:25.754Z,98704.06
2022-09-22T23:34:54.078Z,98708.28
2022-09-22T23:37:25.026Z,98700.75
2022-09-22T23:39:55.167Z,98703.53
2022-09-22T23:42:24.427Z,98707.56
2022-09-22T23:44:52.530Z,98702.34
2022-09-22T23:47:21.027Z,98700.03
2022-09-22T23:49:49.443Z,98701.03
2022-09-22T23:52:17.453Z,98702.78
2022-09-22T23:54:45.952Z,98702.97
2022-09-22T23:57:15.697Z,98695.88
2022-09-22T23:59:43.924Z,98692.72
